Time;durP1;ratioP1;P1;durP2;ratioP2;P2;SDS_P1;SDS_P2;PMS_P1;PMS_P2;Temp;Humidity;BMP_temperature;BMP_pressure;BME280_temperature;BME280_humidity;BME280_pressure;Samples;Min_cycle;Max_cycle;Signal;HPM_P1;HPM_P2
2024/02/04 00:00:01;;;;;;;0.43;0.35;;;;;;;;;;635288;23;856;-79
2024/02/04 00:00:17;;;;;;;0.50;0.40;;;;;;;;;;634529;23;1391;-74
2024/02/04 00:00:33;;;;;;;0.45;0.30;;;;;;;;;;633016;23;1564;-75
2024/02/04 00:00:48;;;;;;;0.67;0.30;;;;;;;;;;633571;23;1266;-75
2024/02/04 00:01:04;;;;;;;0.60;0.30;;;;;;;;;;634102;23;855;-75
2024/02/04 00:01:19;;;;;;;0.40;0.40;;;;;;;;;;636434;23;812;-75
2024/02/04 00:01:34;;;;;;;0.50;0.40;;;;;;;;;;638566;23;1277;-75
2024/02/04 00:01:50;;;;;;;0.30;0.30;;;;;;;;;;634052;23;1267;-75
2024/02/04 00:02:07;;;;;;;0.40;0.40;;;;;;;;;;634403;23;1030;-75
2024/02/04 00:02:24;;;;;;;0.47;0.40;;;;;;;;;;635687;23;915;-75
2024/02/04 00:02:40;;;;;;;0.60;0.32;;;;;;;;;;638416;23;1465;-75
2024/02/04 00:02:55;;;;;;;0.67;0.30;;;;;;;;;;638500;23;804;-75
2024/02/04 00:03:10;;;;;;;0.60;0.38;;;;;;;;;;637696;23;1187;-75
2024/02/04 00:03:26;;;;;;;0.40;0.40;;;;;;;;;;635114;23;1286;-75
2024/02/04 00:03:41;;;;;;;0.40;0.30;;;;;;;;;;635613;23;926;-75
2024/02/04 00:03:56;;;;;;;0.40;0.30;;;;;;;;;;638206;23;1256;-75
2024/02/04 00:04:12;;;;;;;0.43;0.30;;;;;;;;;;634855;23;1178;-75
2024/02/04 00:04:27;;;;;;;0.70;0.30;;;;;;;;;;634916;23;1269;-75
2024/02/04 00:04:42;;;;;;;0.60;0.40;;;;;;;;;;628860;23;1161;-75
2024/02/04 00:04:58;;;;;;;0.50;0.40;;;;;;;;;;629187;23;839;-74
2024/02/04 00:05:13;;;;;;;0.40;0.40;;;;;;;;;;628571;23;1274;-75
2024/02/04 00:05:28;;;;;;;0.60;0.30;;;;;;;;;;625615;23;1263;-75
2024/02/04 00:05:44;;;;;;;0.50;0.30;;;;;;;;;;626657;23;1149;-75
2024/02/04 00:05:59;;;;;;;0.40;0.40;;;;;;;;;;629264;23;1111;-75
2024/02/04 00:06:14;;;;;;;0.50;0.40;;;;;;;;;;628388;23;1255;-76
2024/02/04 00:06:30;;;;;;;0.40;0.40;;;;;;;;;;628570;23;1290;-77
2024/02/04 00:06:45;;;;;;;0.47;0.40;;;;;;;;;;629017;23;1027;-76
2024/02/04 00:07:01;;;;;;;0.40;0.40;;;;;;;;;;627963;23;1322;-75
2024/02/04 00:07:16;;;;;;;0.40;0.40;;;;;;;;;;630097;23;1094;-75
2024/02/04 00:07:31;;;;;;;0.47;0.30;;;;;;;;;;632176;23;836;-77
2024/02/04 00:07:47;;;;;;;0.40;0.30;;;;;;;;;;629011;23;1189;-76
2024/02/04 00:08:02;;;;;;;0.40;0.32;;;;;;;;;;629643;23;978;-75
2024/02/04 00:08:18;;;;;;;0.40;0.30;;;;;;;;;;628323;23;1158;-74
2024/02/04 00:08:33;;;;;;;0.40;0.30;;;;;;;;;;629110;23;1261;-75
2024/02/04 00:08:48;;;;;;;0.40;0.30;;;;;;;;;;629286;23;1319;-74
2024/02/04 00:09:04;;;;;;;0.33;0.30;;;;;;;;;;632003;23;1184;-75
2024/02/04 00:09:19;;;;;;;0.55;0.30;;;;;;;;;;631953;23;867;-75
2024/02/04 00:09:35;;;;;;;0.53;0.30;;;;;;;;;;632520;23;1096;-75
2024/02/04 00:09:50;;;;;;;0.47;0.40;;;;;;;;;;631518;23;1218;-75
2024/02/04 00:10:06;;;;;;;0.52;0.40;;;;;;;;;;632095;23;1076;-75
2024/02/04 00:10:21;;;;;;;0.80;0.40;;;;;;;;;;631956;23;1182;-74
2024/02/04 00:10:36;;;;;;;0.70;0.40;;;;;;;;;;632460;23;1269;-75
2024/02/04 00:10:51;;;;;;;0.50;0.50;;;;;;;;;;634717;23;1082;-75
2024/02/04 00:11:11;;;;;;;1.00;0.80;;;;;;;;;;631578;23;1283;-75
2024/02/04 00:11:27;;;;;;;1.08;0.70;;;;;;;;;;631953;23;1227;-75
2024/02/04 00:11:43;;;;;;;0.50;0.40;;;;;;;;;;632942;23;1184;-74
2024/02/04 00:12:01;;;;;;;0.35;0.35;;;;;;;;;;634680;23;1186;-74
2024/02/04 00:12:16;;;;;;;0.60;0.40;;;;;;;;;;631359;23;1351;-75
2024/02/04 00:12:31;;;;;;;0.50;0.40;;;;;;;;;;628862;23;1260;-75
2024/02/04 00:12:47;;;;;;;0.50;0.50;;;;;;;;;;628852;23;805;-75
2024/02/04 00:13:03;;;;;;;0.80;0.50;;;;;;;;;;627745;23;1143;-75
2024/02/04 00:13:18;;;;;;;0.68;0.30;;;;;;;;;;630115;23;875;-74
2024/02/04 00:13:34;;;;;;;0.30;0.30;;;;;;;;;;631435;23;1201;-74
2024/02/04 00:13:49;;;;;;;0.87;0.50;;;;;;;;;;631586;23;1153;-74
2024/02/04 00:14:04;;;;;;;0.88;0.45;;;;;;;;;;628822;23;1244;-74
2024/02/04 00:14:20;;;;;;;0.30;0.30;;;;;;;;;;629549;23;998;-74
2024/02/04 00:14:35;;;;;;;0.40;0.30;;;;;;;;;;631544;23;1268;-75
2024/02/04 00:14:50;;;;;;;0.40;0.30;;;;;;;;;;631551;23;1126;-75
2024/02/04 00:15:06;;;;;;;0.37;0.30;;;;;;;;;;631118;23;824;-74
2024/02/04 00:15:22;;;;;;;0.40;0.30;;;;;;;;;;632364;23;1069;-74
2024/02/04 00:15:37;;;;;;;0.60;0.35;;;;;;;;;;635562;23;903;-75
2024/02/04 00:15:54;;;;;;;0.73;0.50;;;;;;;;;;638128;23;1378;-75
2024/02/04 00:16:09;;;;;;;0.57;0.50;;;;;;;;;;641434;23;919;-75
2024/02/04 00:16:24;;;;;;;0.50;0.40;;;;;;;;;;640438;23;1206;-75
2024/02/04 00:16:40;;;;;;;0.40;0.30;;;;;;;;;;635499;23;1181;-74
2024/02/04 00:16:55;;;;;;;0.30;0.30;;;;;;;;;;638011;23;820;-74
2024/02/04 00:17:10;;;;;;;0.77;0.40;;;;;;;;;;634332;23;1307;-75
2024/02/04 00:17:29;;;;;;;0.80;0.40;;;;;;;;;;635348;23;871;-75
2024/02/04 00:17:45;;;;;;;0.50;0.30;;;;;;;;;;635239;23;801;-75
2024/02/04 00:18:00;;;;;;;1.05;0.30;;;;;;;;;;635365;23;879;-75
2024/02/04 00:18:15;;;;;;;0.67;0.30;;;;;;;;;;631870;23;1255;-75
2024/02/04 00:18:32;;;;;;;0.60;0.30;;;;;;;;;;632995;23;1056;-75
2024/02/04 00:18:47;;;;;;;0.90;0.40;;;;;;;;;;631688;23;1304;-75
2024/02/04 00:19:02;;;;;;;0.55;0.40;;;;;;;;;;629759;23;1462;-75
2024/02/04 00:19:17;;;;;;;0.50;0.40;;;;;;;;;;628509;23;1241;-75
2024/02/04 00:19:33;;;;;;;0.87;0.37;;;;;;;;;;626083;23;1325;-75
2024/02/04 00:19:48;;;;;;;0.60;0.30;;;;;;;;;;628499;23;1154;-75
2024/02/04 00:20:07;;;;;;;0.23;0.23;;;;;;;;;;625958;23;1225;-75
2024/02/04 00:20:24;;;;;;;0.38;0.30;;;;;;;;;;629168;23;1465;-75
2024/02/04 00:20:41;;;;;;;0.47;0.30;;;;;;;;;;628982;23;911;-74
2024/02/04 00:20:56;;;;;;;0.30;0.28;;;;;;;;;;629030;23;931;-74
2024/02/04 00:21:12;;;;;;;0.30;0.30;;;;;;;;;;628727;23;1346;-75
2024/02/04 00:21:27;;;;;;;0.30;0.30;;;;;;;;;;632105;23;1313;-75
2024/02/04 00:21:42;;;;;;;0.40;0.30;;;;;;;;;;631973;23;1112;-75
2024/02/04 00:21:57;;;;;;;0.40;0.30;;;;;;;;;;631269;23;1254;-75
2024/02/04 00:22:13;;;;;;;0.40;0.20;;;;;;;;;;631234;23;1239;-75
2024/02/04 00:22:29;;;;;;;0.30;0.20;;;;;;;;;;632008;23;1435;-75
2024/02/04 00:22:44;;;;;;;0.30;0.30;;;;;;;;;;629078;23;1192;-75
2024/02/04 00:22:59;;;;;;;0.30;0.30;;;;;;;;;;631713;23;1248;-75
2024/02/04 00:23:14;;;;;;;0.40;0.30;;;;;;;;;;631803;23;828;-74
2024/02/04 00:23:30;;;;;;;0.45;0.40;;;;;;;;;;632375;23;1030;-75
2024/02/04 00:23:45;;;;;;;0.50;0.40;;;;;;;;;;632195;23;1225;-75
2024/02/04 00:24:01;;;;;;;0.87;0.30;;;;;;;;;;632007;23;978;-75
2024/02/04 00:24:18;;;;;;;0.90;0.30;;;;;;;;;;632144;23;927;-75
2024/02/04 00:24:33;;;;;;;0.40;0.30;;;;;;;;;;635707;23;1009;-74
2024/02/04 00:24:49;;;;;;;0.40;0.30;;;;;;;;;;635598;23;1172;-75
2024/02/04 00:25:04;;;;;;;1.15;0.28;;;;;;;;;;637206;23;1177;-75
2024/02/04 00:25:20;;;;;;;1.10;0.30;;;;;;;;;;637738;23;1055;-75
2024/02/04 00:25:35;;;;;;;0.40;0.40;;;;;;;;;;638339;23;1172;-75
2024/02/04 00:25:53;;;;;;;0.45;0.40;;;;;;;;;;637862;23;898;-75
2024/02/04 00:26:09;;;;;;;0.83;0.33;;;;;;;;;;634640;23;1201;-75
2024/02/04 00:26:24;;;;;;;1.10;0.30;;;;;;;;;;634825;23;1609;-75
2024/02/04 00:26:40;;;;;;;0.70;0.30;;;;;;;;;;633191;23;978;-75
2024/02/04 00:26:55;;;;;;;1.70;0.35;;;;;;;;;;635039;23;1024;-75
2024/02/04 00:27:10;;;;;;;1.70;0.40;;;;;;;;;;633952;23;1254;-75
2024/02/04 00:27:25;;;;;;;0.47;0.30;;;;;;;;;;635006;23;1219;-75
2024/02/04 00:27:41;;;;;;;0.57;0.30;;;;;;;;;;631384;23;1294;-75
2024/02/04 00:27:56;;;;;;;0.50;0.32;;;;;;;;;;631773;23;1461;-75
2024/02/04 00:28:12;;;;;;;0.40;0.30;;;;;;;;;;631889;23;1449;-75
2024/02/04 00:28:30;;;;;;;0.47;0.30;;;;;;;;;;632280;23;1163;-74
2024/02/04 00:28:45;;;;;;;0.50;0.32;;;;;;;;;;634892;23;899;-75
2024/02/04 00:29:00;;;;;;;0.40;0.30;;;;;;;;;;634954;23;1159;-75
2024/02/04 00:29:16;;;;;;;0.90;0.40;;;;;;;;;;634398;23;1015;-75
2024/02/04 00:29:31;;;;;;;1.00;0.40;;;;;;;;;;635490;23;1349;-75
2024/02/04 00:29:46;;;;;;;0.40;0.40;;;;;;;;;;637843;23;1161;-75
2024/02/04 00:30:01;;;;;;;0.30;0.30;;;;;;;;;;638986;23;853;-75
2024/02/04 00:30:17;;;;;;;0.57;0.40;;;;;;;;;;637347;23;971;-75
2024/02/04 00:30:32;;;;;;;0.53;0.30;;;;;;;;;;637614;23;1333;-75
2024/02/04 00:30:49;;;;;;;0.30;0.30;;;;;;;;;;638316;23;816;-75
2024/02/04 00:31:05;;;;;;;1.38;0.38;;;;;;;;;;638143;23;903;-75
2024/02/04 00:31:20;;;;;;;1.40;0.40;;;;;;;;;;637772;23;1251;-75
2024/02/04 00:31:35;;;;;;;0.43;0.30;;;;;;;;;;638573;23;959;-75
2024/02/04 00:31:50;;;;;;;0.43;0.37;;;;;;;;;;637981;23;1132;-74
2024/02/04 00:32:06;;;;;;;0.52;0.30;;;;;;;;;;638037;23;1174;-75
2024/02/04 00:32:21;;;;;;;0.40;0.30;;;;;;;;;;637905;23;1178;-75
2024/02/04 00:32:37;;;;;;;0.40;0.28;;;;;;;;;;637998;23;1599;-75
2024/02/04 00:32:52;;;;;;;0.60;0.40;;;;;;;;;;638115;23;1376;-75
2024/02/04 00:33:08;;;;;;;0.70;0.40;;;;;;;;;;637433;23;1154;-75
2024/02/04 00:33:24;;;;;;;0.40;0.30;;;;;;;;;;635059;23;1440;-75
2024/02/04 00:33:40;;;;;;;0.55;0.30;;;;;;;;;;635314;23;911;-75
2024/02/04 00:33:55;;;;;;;0.60;0.30;;;;;;;;;;634055;23;1452;-75
2024/02/04 00:34:10;;;;;;;0.63;0.30;;;;;;;;;;632594;23;1582;-76
2024/02/04 00:34:26;;;;;;;0.70;0.30;;;;;;;;;;631388;23;1142;-76
2024/02/04 00:34:41;;;;;;;0.40;0.30;;;;;;;;;;631774;23;1326;-75
2024/02/04 00:34:57;;;;;;;0.30;0.30;;;;;;;;;;632211;23;865;-76
2024/02/04 00:35:12;;;;;;;0.60;0.30;;;;;;;;;;631834;23;1389;-75
2024/02/04 00:35:28;;;;;;;0.80;0.30;;;;;;;;;;631882;23;1238;-75
2024/02/04 00:35:44;;;;;;;0.40;0.30;;;;;;;;;;631936;23;1250;-75
2024/02/04 00:36:00;;;;;;;0.20;0.20;;;;;;;;;;631280;23;1619;-76
2024/02/04 00:36:17;;;;;;;0.40;0.30;;;;;;;;;;632556;23;1280;-75
2024/02/04 00:36:32;;;;;;;0.40;0.30;;;;;;;;;;634753;23;891;-76
2024/02/04 00:36:48;;;;;;;1.20;0.30;;;;;;;;;;634611;23;1236;-76
2024/02/04 00:37:03;;;;;;;1.13;0.20;;;;;;;;;;634774;23;1905;-76
2024/02/04 00:37:19;;;;;;;0.20;0.20;;;;;;;;;;634039;23;1120;-76
2024/02/04 00:37:36;;;;;;;0.38;0.30;;;;;;;;;;632068;23;1266;-75
2024/02/04 00:37:51;;;;;;;0.55;0.30;;;;;;;;;;629784;23;1238;-76
2024/02/04 00:38:06;;;;;;;0.50;0.27;;;;;;;;;;632170;23;880;-76
2024/02/04 00:38:22;;;;;;;0.32;0.30;;;;;;;;;;632043;23;879;-75
2024/02/04 00:38:37;;;;;;;0.40;0.30;;;;;;;;;;628320;23;1130;-76
2024/02/04 00:38:52;;;;;;;0.90;0.20;;;;;;;;;;629312;23;1271;-76
2024/02/04 00:39:09;;;;;;;0.70;0.30;;;;;;;;;;628796;23;1471;-76
2024/02/04 00:39:25;;;;;;;0.22;0.22;;;;;;;;;;626888;23;1325;-76
2024/02/04 00:39:40;;;;;;;0.30;0.30;;;;;;;;;;629219;23;1070;-76
2024/02/04 00:39:55;;;;;;;0.43;0.27;;;;;;;;;;631733;23;1244;-76
2024/02/04 00:40:11;;;;;;;0.30;0.20;;;;;;;;;;631259;23;1183;-76
2024/02/04 00:40:26;;;;;;;0.40;0.27;;;;;;;;;;631592;23;1504;-76
2024/02/04 00:40:41;;;;;;;0.60;0.30;;;;;;;;;;631826;23;1207;-76
2024/02/04 00:40:57;;;;;;;0.43;0.30;;;;;;;;;;632618;23;1149;-75
2024/02/04 00:41:12;;;;;;;0.30;0.30;;;;;;;;;;632054;23;1332;-75
2024/02/04 00:41:27;;;;;;;0.68;0.28;;;;;;;;;;631699;23;1046;-76
2024/02/04 00:41:43;;;;;;;0.90;0.30;;;;;;;;;;629279;23;1154;-75
2024/02/04 00:41:58;;;;;;;0.90;0.30;;;;;;;;;;631246;23;1440;-76
2024/02/04 00:42:13;;;;;;;0.77;0.20;;;;;;;;;;631011;23;1064;-75
2024/02/04 00:42:30;;;;;;;0.40;0.30;;;;;;;;;;631931;23;1262;-76
2024/02/04 00:42:46;;;;;;;0.30;0.30;;;;;;;;;;631670;23;903;-75
2024/02/04 00:43:01;;;;;;;0.40;0.30;;;;;;;;;;632430;23;1119;-76
2024/02/04 00:43:17;;;;;;;0.47;0.30;;;;;;;;;;635174;23;1351;-75
2024/02/04 00:43:32;;;;;;;0.40;0.20;;;;;;;;;;635594;23;1395;-76
2024/02/04 00:43:47;;;;;;;0.40;0.20;;;;;;;;;;631481;23;1398;-76
2024/02/04 00:44:03;;;;;;;0.20;0.20;;;;;;;;;;631920;23;1122;-75
2024/02/04 00:44:19;;;;;;;0.20;0.20;;;;;;;;;;632173;23;737;-75
2024/02/04 00:44:34;;;;;;;0.25;0.20;;;;;;;;;;631983;23;1146;-76
2024/02/04 00:44:50;;;;;;;0.40;0.30;;;;;;;;;;628510;23;1270;-75
2024/02/04 00:45:06;;;;;;;0.40;0.20;;;;;;;;;;631940;23;1255;-75
2024/02/04 00:45:21;;;;;;;0.88;0.28;;;;;;;;;;634912;23;1240;-76
2024/02/04 00:45:36;;;;;;;1.07;0.30;;;;;;;;;;635165;23;1148;-76
2024/02/04 00:45:54;;;;;;;0.38;0.20;;;;;;;;;;637935;23;1293;-76
2024/02/04 00:46:10;;;;;;;0.57;0.30;;;;;;;;;;637862;23;894;-76
2024/02/04 00:46:25;;;;;;;0.55;0.30;;;;;;;;;;638390;23;848;-76
2024/02/04 00:46:40;;;;;;;0.52;0.30;;;;;;;;;;634751;23;1157;-76
2024/02/04 00:46:56;;;;;;;0.47;0.30;;;;;;;;;;638389;23;1215;-76
2024/02/04 00:47:13;;;;;;;0.30;0.30;;;;;;;;;;640130;23;1105;-76
2024/02/04 00:47:28;;;;;;;1.00;0.30;;;;;;;;;;640166;23;1038;-76
2024/02/04 00:47:43;;;;;;;1.02;0.30;;;;;;;;;;634884;23;1446;-76
2024/02/04 00:47:59;;;;;;;0.57;0.30;;;;;;;;;;634760;23;1197;-76
2024/02/04 00:48:15;;;;;;;0.40;0.30;;;;;;;;;;635008;23;804;-76
2024/02/04 00:48:31;;;;;;;0.30;0.30;;;;;;;;;;635368;23;843;-76
2024/02/04 00:48:46;;;;;;;0.40;0.20;;;;;;;;;;632947;23;1373;-77
2024/02/04 00:49:01;;;;;;;0.38;0.20;;;;;;;;;;631754;23;1207;-76
2024/02/04 00:49:16;;;;;;;0.40;0.30;;;;;;;;;;631309;23;1110;-76
2024/02/04 00:49:32;;;;;;;0.50;0.30;;;;;;;;;;632280;23;1200;-77
2024/02/04 00:49:48;;;;;;;0.30;0.30;;;;;;;;;;631091;23;1222;-76
2024/02/04 00:50:04;;;;;;;0.40;0.20;;;;;;;;;;631425;23;1009;-77
2024/02/04 00:50:21;;;;;;;0.60;0.30;;;;;;;;;;631693;23;1014;-76
2024/02/04 00:50:36;;;;;;;1.45;0.40;;;;;;;;;;626291;23;1258;-77
2024/02/04 00:50:51;;;;;;;1.70;0.40;;;;;;;;;;628372;23;1356;-77
2024/02/04 00:51:08;;;;;;;0.73;0.40;;;;;;;;;;627860;23;1113;-77
2024/02/04 00:51:23;;;;;;;0.60;0.30;;;;;;;;;;628730;23;1160;-77
2024/02/04 00:51:39;;;;;;;0.70;0.30;;;;;;;;;;631634;23;1197;-78
2024/02/04 00:51:54;;;;;;;0.63;0.30;;;;;;;;;;631526;23;1122;-77
2024/02/04 00:52:11;;;;;;;1.00;0.40;;;;;;;;;;631039;23;1266;-77
2024/02/04 00:52:26;;;;;;;1.45;0.45;;;;;;;;;;631579;23;912;-77
2024/02/04 00:52:41;;;;;;;1.10;0.30;;;;;;;;;;632700;23;1247;-77
2024/02/04 00:52:56;;;;;;;0.77;0.30;;;;;;;;;;633845;23;1263;-78
2024/02/04 00:53:12;;;;;;;1.20;0.40;;;;;;;;;;631338;23;1353;-78
2024/02/04 00:53:33;;;;;;;0.82;0.32;;;;;;;;;;634446;23;1264;-77
2024/02/04 00:53:48;;;;;;;0.47;0.30;;;;;;;;;;634500;23;824;-77
2024/02/04 00:54:05;;;;;;;0.60;0.30;;;;;;;;;;631398;23;1333;-77
2024/02/04 00:54:20;;;;;;;0.40;0.28;;;;;;;;;;631720;23;915;-77
2024/02/04 00:54:35;;;;;;;0.65;0.30;;;;;;;;;;628621;23;1581;-77
2024/02/04 00:54:51;;;;;;;0.60;0.30;;;;;;;;;;627639;23;1495;-77
2024/02/04 00:55:06;;;;;;;0.70;0.30;;;;;;;;;;625265;23;1225;-77
2024/02/04 00:55:22;;;;;;;0.90;0.30;;;;;;;;;;627282;23;1098;-77
2024/02/04 00:55:39;;;;;;;0.50;0.30;;;;;;;;;;628665;23;1001;-77
2024/02/04 00:55:55;;;;;;;0.50;0.30;;;;;;;;;;629580;23;895;-76
2024/02/04 00:56:11;;;;;;;0.70;0.30;;;;;;;;;;631812;23;1199;-77
2024/02/04 00:56:26;;;;;;;0.35;0.30;;;;;;;;;;632465;23;1449;-76
2024/02/04 00:56:42;;;;;;;0.30;0.30;;;;;;;;;;636185;23;784;-77
2024/02/04 00:56:57;;;;;;;0.30;0.30;;;;;;;;;;638368;23;1944;-77
2024/02/04 00:57:12;;;;;;;0.30;0.30;;;;;;;;;;637037;23;1356;-76
2024/02/04 00:57:28;;;;;;;0.30;0.20;;;;;;;;;;637350;23;1281;-77
2024/02/04 00:57:43;;;;;;;0.70;0.20;;;;;;;;;;634998;23;1131;-76
2024/02/04 00:58:00;;;;;;;0.73;0.20;;;;;;;;;;633876;23;1243;-77
2024/02/04 00:58:15;;;;;;;1.30;0.30;;;;;;;;;;634654;23;1152;-82
2024/02/04 00:58:31;;;;;;;1.10;0.30;;;;;;;;;;634755;23;1071;-84
2024/02/04 00:58:46;;;;;;;0.20;0.20;;;;;;;;;;634365;23;1197;-83
2024/02/04 00:59:02;;;;;;;0.30;0.30;;;;;;;;;;631782;23;1042;-82
2024/02/04 00:59:17;;;;;;;0.40;0.30;;;;;;;;;;631110;23;1120;-83
2024/02/04 00:59:32;;;;;;;0.50;0.30;;;;;;;;;;629507;23;1297;-83
2024/02/04 00:59:48;;;;;;;0.40;0.30;;;;;;;;;;634473;23;1360;-83
2024/02/04 01:00:04;;;;;;;0.43;0.20;;;;;;;;;;635135;23;996;-82
2024/02/04 01:00:19;;;;;;;0.60;0.30;;;;;;;;;;638110;23;883;-83
2024/02/04 01:00:36;;;;;;;0.40;0.30;;;;;;;;;;633677;23;1191;-84
2024/02/04 01:00:51;;;;;;;0.23;0.20;;;;;;;;;;635502;23;1360;-83
2024/02/04 01:01:06;;;;;;;0.30;0.20;;;;;;;;;;634080;23;1224;-82
2024/02/04 01:01:22;;;;;;;0.33;0.20;;;;;;;;;;634738;23;1365;-84
2024/02/04 01:01:39;;;;;;;0.35;0.30;;;;;;;;;;634519;23;1025;-82
2024/02/04 01:01:55;;;;;;;0.40;0.30;;;;;;;;;;631449;23;1213;-83
2024/02/04 01:02:11;;;;;;;0.50;0.30;;;;;;;;;;631280;23;1171;-83
2024/02/04 01:02:26;;;;;;;0.60;0.35;;;;;;;;;;628468;23;1363;-83
2024/02/04 01:02:42;;;;;;;0.90;0.30;;;;;;;;;;629813;23;1220;-82
2024/02/04 01:02:58;;;;;;;0.50;0.20;;;;;;;;;;629295;23;1235;-83
2024/02/04 01:03:13;;;;;;;0.40;0.20;;;;;;;;;;630828;23;1305;-84
2024/02/04 01:03:31;;;;;;;0.60;0.20;;;;;;;;;;628320;23;1230;-84
2024/02/04 01:03:46;;;;;;;0.47;0.20;;;;;;;;;;629602;23;1462;-86
2024/02/04 01:04:02;;;;;;;1.10;0.30;;;;;;;;;;631709;23;1097;-83
2024/02/04 01:04:17;;;;;;;1.00;0.40;;;;;;;;;;632654;23;911;-83
2024/02/04 01:04:32;;;;;;;0.40;0.30;;;;;;;;;;634865;23;761;-82
2024/02/04 01:04:50;;;;;;;0.40;0.30;;;;;;;;;;634367;23;1317;-82
2024/02/04 01:05:06;;;;;;;0.57;0.40;;;;;;;;;;634514;23;1258;-81
2024/02/04 01:05:21;;;;;;;0.70;0.35;;;;;;;;;;636482;23;824;-81
2024/02/04 01:05:36;;;;;;;0.77;0.40;;;;;;;;;;634508;23;1462;-82
2024/02/04 01:05:52;;;;;;;0.50;0.30;;;;;;;;;;634240;23;1328;-81
2024/02/04 01:06:07;;;;;;;0.40;0.25;;;;;;;;;;634051;23;1203;-82
2024/02/04 01:06:22;;;;;;;0.40;0.30;;;;;;;;;;631137;23;1290;-82
2024/02/04 01:06:38;;;;;;;0.33;0.30;;;;;;;;;;631607;23;745;-82
2024/02/04 01:06:53;;;;;;;0.30;0.30;;;;;;;;;;628788;23;1099;-81
2024/02/04 01:07:08;;;;;;;0.40;0.40;;;;;;;;;;627692;23;1215;-82
2024/02/04 01:07:23;;;;;;;0.63;0.40;;;;;;;;;;628647;23;1403;-82
2024/02/04 01:07:39;;;;;;;0.40;0.30;;;;;;;;;;629086;23;1267;-81
2024/02/04 01:07:54;;;;;;;0.30;0.30;;;;;;;;;;628027;23;1243;-82
2024/02/04 01:08:09;;;;;;;0.50;0.30;;;;;;;;;;629116;23;784;-83
2024/02/04 01:08:24;;;;;;;1.00;0.33;;;;;;;;;;628562;23;1361;-82
2024/02/04 01:08:40;;;;;;;0.85;0.38;;;;;;;;;;634536;23;1425;-83
2024/02/04 01:08:58;;;;;;;0.43;0.33;;;;;;;;;;631529;23;1150;-83
2024/02/04 01:09:14;;;;;;;0.65;0.40;;;;;;;;;;634540;23;1248;-84
2024/02/04 01:09:29;;;;;;;0.73;0.30;;;;;;;;;;628651;23;1133;-83
2024/02/04 01:09:44;;;;;;;0.60;0.30;;;;;;;;;;625641;23;1133;-82
2024/02/04 01:10:00;;;;;;;0.55;0.30;;;;;;;;;;628458;23;1121;-82
2024/02/04 01:10:15;;;;;;;0.70;0.30;;;;;;;;;;628674;23;1089;-83
2024/02/04 01:10:30;;;;;;;0.80;0.40;;;;;;;;;;631292;23;1297;-83
2024/02/04 01:10:46;;;;;;;1.10;0.40;;;;;;;;;;632485;23;1291;-83
2024/02/04 01:11:02;;;;;;;0.90;0.40;;;;;;;;;;634649;23;1040;-83
2024/02/04 01:11:17;;;;;;;0.50;0.33;;;;;;;;;;634824;23;1245;-83
2024/02/04 01:11:32;;;;;;;0.50;0.40;;;;;;;;;;634505;23;1180;-83
2024/02/04 01:11:48;;;;;;;1.30;0.43;;;;;;;;;;631904;23;1379;-83
2024/02/04 01:12:03;;;;;;;1.42;0.40;;;;;;;;;;634467;23;753;-83
2024/02/04 01:12:19;;;;;;;1.10;0.60;;;;;;;;;;634223;23;1150;-84
2024/02/04 01:12:35;;;;;;;0.97;0.50;;;;;;;;;;634681;23;1117;-83
2024/02/04 01:12:50;;;;;;;0.63;0.30;;;;;;;;;;634578;23;1246;-82
2024/02/04 01:13:07;;;;;;;0.75;0.35;;;;;;;;;;630734;23;1444;-82
2024/02/04 01:13:23;;;;;;;0.73;0.40;;;;;;;;;;632032;23;1017;-83
2024/02/04 01:13:40;;;;;;;0.70;0.40;;;;;;;;;;632757;23;1217;-82
2024/02/04 01:13:55;;;;;;;0.43;0.30;;;;;;;;;;631338;23;1242;-84
2024/02/04 01:14:13;;;;;;;0.30;0.30;;;;;;;;;;631693;23;1127;-84
2024/02/04 01:14:32;;;;;;;0.93;0.40;;;;;;;;;;631948;23;872;-84
2024/02/04 01:14:47;;;;;;;1.10;0.50;;;;;;;;;;628229;23;1331;-83
2024/02/04 01:15:05;;;;;;;1.23;0.50;;;;;;;;;;631351;23;1363;-82
2024/02/04 01:15:20;;;;;;;0.90;0.40;;;;;;;;;;631839;23;829;-83
2024/02/04 01:15:35;;;;;;;0.53;0.40;;;;;;;;;;631397;23;1107;-83
2024/02/04 01:15:51;;;;;;;0.88;0.45;;;;;;;;;;628527;23;1385;-83
2024/02/04 01:16:06;;;;;;;0.80;0.40;;;;;;;;;;630717;23;1236;-84
2024/02/04 01:16:22;;;;;;;1.00;0.50;;;;;;;;;;631894;23;1084;-84
2024/02/04 01:16:37;;;;;;;1.43;0.50;;;;;;;;;;631442;23;1167;-84
2024/02/04 01:16:52;;;;;;;1.23;0.50;;;;;;;;;;629550;23;1388;-84
2024/02/04 01:17:08;;;;;;;0.57;0.40;;;;;;;;;;627809;23;1937;-83
2024/02/04 01:17:23;;;;;;;1.00;0.40;;;;;;;;;;628925;23;875;-84
2024/02/04 01:17:38;;;;;;;1.20;0.50;;;;;;;;;;626235;23;1244;-83
2024/02/04 01:17:54;;;;;;;1.00;0.50;;;;;;;;;;628621;23;1334;-83
2024/02/04 01:18:09;;;;;;;0.83;0.40;;;;;;;;;;628434;23;1088;-84
2024/02/04 01:18:25;;;;;;;0.68;0.40;;;;;;;;;;625853;23;1141;-84
2024/02/04 01:18:43;;;;;;;0.90;0.43;;;;;;;;;;628995;23;1337;-84
2024/02/04 01:18:58;;;;;;;0.63;0.40;;;;;;;;;;625682;23;1312;-83
2024/02/04 01:19:13;;;;;;;0.50;0.30;;;;;;;;;;631115;23;1372;-83
2024/02/04 01:19:29;;;;;;;0.60;0.30;;;;;;;;;;631622;23;1212;-82
2024/02/04 01:19:44;;;;;;;0.43;0.33;;;;;;;;;;631593;23;1137;-83
2024/02/04 01:20:01;;;;;;;0.40;0.40;;;;;;;;;;631783;23;1235;-83
2024/02/04 01:20:16;;;;;;;0.40;0.40;;;;;;;;;;631236;23;863;-83
2024/02/04 01:20:33;;;;;;;0.40;0.40;;;;;;;;;;634419;23;1164;-83
2024/02/04 01:20:49;;;;;;;0.40;0.40;;;;;;;;;;634056;23;1206;-84
2024/02/04 01:21:04;;;;;;;0.73;0.50;;;;;;;;;;634383;23;1171;-83
2024/02/04 01:21:20;;;;;;;0.63;0.40;;;;;;;;;;634043;23;1173;-84
2024/02/04 01:21:35;;;;;;;0.40;0.40;;;;;;;;;;634364;23;1176;-82
2024/02/04 01:21:50;;;;;;;0.43;0.40;;;;;;;;;;634490;23;1212;-82
2024/02/04 01:22:06;;;;;;;0.50;0.40;;;;;;;;;;630674;23;1346;-82
2024/02/04 01:22:26;;;;;;;0.63;0.40;;;;;;;;;;631419;23;1330;-83
2024/02/04 01:22:41;;;;;;;0.80;0.40;;;;;;;;;;632952;23;899;-83
2024/02/04 01:22:56;;;;;;;0.90;0.40;;;;;;;;;;631250;23;1199;-82
2024/02/04 01:23:12;;;;;;;0.73;0.40;;;;;;;;;;632492;23;1266;-82
2024/02/04 01:23:29;;;;;;;0.73;0.43;;;;;;;;;;631201;23;1203;-82
2024/02/04 01:23:44;;;;;;;0.55;0.40;;;;;;;;;;628431;23;1197;-83
2024/02/04 01:24:00;;;;;;;0.70;0.33;;;;;;;;;;627299;23;1331;-82
2024/02/04 01:24:15;;;;;;;0.70;0.40;;;;;;;;;;628552;23;844;-83
2024/02/04 01:24:31;;;;;;;0.43;0.40;;;;;;;;;;625623;23;1169;-83
2024/02/04 01:24:48;;;;;;;0.60;0.30;;;;;;;;;;625755;23;1250;-83
2024/02/04 01:25:04;;;;;;;0.38;0.30;;;;;;;;;;625903;23;1549;-83
2024/02/04 01:25:19;;;;;;;0.30;0.30;;;;;;;;;;628592;23;1077;-84
2024/02/04 01:25:35;;;;;;;0.30;0.30;;;;;;;;;;631298;23;1231;-83
2024/02/04 01:25:50;;;;;;;0.50;0.40;;;;;;;;;;633692;23;1084;-82
2024/02/04 01:26:05;;;;;;;0.60;0.40;;;;;;;;;;634020;23;1124;-82
2024/02/04 01:26:23;;;;;;;1.00;0.40;;;;;;;;;;635544;23;1356;-83
2024/02/04 01:26:38;;;;;;;0.90;0.40;;;;;;;;;;634555;23;1356;-83
2024/02/04 01:26:53;;;;;;;0.40;0.40;;;;;;;;;;634886;23;1193;-82
2024/02/04 01:27:09;;;;;;;0.40;0.40;;;;;;;;;;633921;23;1142;-82
2024/02/04 01:27:24;;;;;;;0.40;0.40;;;;;;;;;;634370;23;1214;-82
2024/02/04 01:27:39;;;;;;;0.40;0.35;;;;;;;;;;634590;23;1222;-83
2024/02/04 01:27:55;;;;;;;0.50;0.40;;;;;;;;;;635241;23;1292;-82
2024/02/04 01:28:10;;;;;;;0.40;0.40;;;;;;;;;;638157;23;796;-83
2024/02/04 01:28:25;;;;;;;0.45;0.40;;;;;;;;;;637805;23;1224;-82
2024/02/04 01:28:41;;;;;;;0.63;0.40;;;;;;;;;;634772;23;1423;-81
2024/02/04 01:28:56;;;;;;;1.00;0.50;;;;;;;;;;631950;23;1355;-82
2024/02/04 01:29:11;;;;;;;0.80;0.50;;;;;;;;;;632242;23;761;-81
2024/02/04 01:29:27;;;;;;;0.87;0.40;;;;;;;;;;631613;23;1328;-83
2024/02/04 01:29:42;;;;;;;0.90;0.40;;;;;;;;;;634550;23;1303;-83
2024/02/04 01:29:57;;;;;;;0.50;0.40;;;;;;;;;;634820;23;1163;-82
2024/02/04 01:30:13;;;;;;;0.47;0.30;;;;;;;;;;631961;23;1194;-82
2024/02/04 01:30:30;;;;;;;0.30;0.30;;;;;;;;;;631678;23;1346;-82
2024/02/04 01:30:45;;;;;;;0.30;0.30;;;;;;;;;;631910;23;872;-82
2024/02/04 01:31:00;;;;;;;0.40;0.40;;;;;;;;;;632054;23;1084;-83
2024/02/04 01:31:16;;;;;;;0.50;0.40;;;;;;;;;;631316;23;1299;-82
2024/02/04 01:31:31;;;;;;;0.45;0.40;;;;;;;;;;629789;23;1157;-83
2024/02/04 01:31:47;;;;;;;0.50;0.40;;;;;;;;;;631809;23;1153;-83
2024/02/04 01:32:03;;;;;;;0.63;0.45;;;;;;;;;;631508;23;1174;-81
2024/02/04 01:32:18;;;;;;;0.60;0.40;;;;;;;;;;629409;23;1328;-81
2024/02/04 01:32:33;;;;;;;0.70;0.40;;;;;;;;;;628758;23;1030;-83
2024/02/04 01:32:48;;;;;;;1.33;0.53;;;;;;;;;;628605;23;1373;-84
2024/02/04 01:33:04;;;;;;;1.60;0.50;;;;;;;;;;628602;23;1247;-83
2024/02/04 01:33:19;;;;;;;1.30;0.40;;;;;;;;;;629352;23;1421;-83
2024/02/04 01:33:34;;;;;;;1.08;0.50;;;;;;;;;;631840;23;1292;-83
2024/02/04 01:33:50;;;;;;;0.57;0.50;;;;;;;;;;632157;23;1172;-85
2024/02/04 01:34:05;;;;;;;0.50;0.50;;;;;;;;;;631952;23;1068;-86
2024/02/04 01:34:20;;;;;;;0.70;0.55;;;;;;;;;;634902;23;1358;-85
2024/02/04 01:34:36;;;;;;;0.60;0.50;;;;;;;;;;638160;23;1164;-84
2024/02/04 01:34:51;;;;;;;1.07;0.40;;;;;;;;;;634772;23;1305;-84
2024/02/04 01:35:07;;;;;;;0.93;0.40;;;;;;;;;;634567;23;1331;-83
2024/02/04 01:35:23;;;;;;;0.65;0.52;;;;;;;;;;635089;23;1324;-83
2024/02/04 01:35:38;;;;;;;0.80;0.57;;;;;;;;;;632108;23;1208;-83
2024/02/04 01:35:55;;;;;;;0.57;0.47;;;;;;;;;;632157;23;922;-82
2024/02/04 01:36:11;;;;;;;0.57;0.40;;;;;;;;;;631472;23;1195;-83
2024/02/04 01:36:27;;;;;;;0.60;0.40;;;;;;;;;;631995;23;1047;-83
2024/02/04 01:36:44;;;;;;;0.70;0.40;;;;;;;;;;633364;23;959;-82
2024/02/04 01:36:59;;;;;;;0.73;0.40;;;;;;;;;;636243;23;1912;-83